sensor_id;sensor_type;location;lat;lon;timestamp;temperature;humidity
24522;DHT22;12680;57.804;12.190;2023-03-01T00:00:08;2.90;99.90
24522;DHT22;12680;57.804;12.190;2023-03-01T00:02:35;2.90;99.90
24522;DHT22;12680;57.804;12.190;2023-03-01T00:05:02;3.00;99.90
24522;DHT22;12680;57.804;12.190;2023-03-01T00:07:29;2.90;99.90
24522;DHT22;12680;57.804;12.190;2023-03-01T00:09:56;2.90;99.90
24522;DHT22;12680;57.804;12.190;2023-03-01T00:12:22;2.80;99.90
24522;DHT22;12680;57.804;12.190;2023-03-01T00:14:49;2.80;99.90
24522;DHT22;12680;57.804;12.190;2023-03-01T00:17:16;2.70;99.90
24522;DHT22;12680;57.804;12.190;2023-03-01T00:19:43;4.90;99.90
24522;DHT22;12680;57.804;12.190;2023-03-01T00:22:10;2.70;99.90
24522;DHT22;12680;57.804;12.190;2023-03-01T00:24:36;2.80;99.90
24522;DHT22;12680;57.804;12.190;2023-03-01T00:27:03;2.70;99.90
24522;DHT22;12680;57.804;12.190;2023-03-01T00:29:30;2.70;99.90
24522;DHT22;12680;57.804;12.190;2023-03-01T00:31:56;2.70;99.90
24522;DHT22;12680;57.804;12.190;2023-03-01T00:34:23;2.70;99.90
24522;DHT22;12680;57.804;12.190;2023-03-01T00:36:50;2.70;99.90
24522;DHT22;12680;57.804;12.190;2023-03-01T00:39:17;2.70;99.90
24522;DHT22;12680;57.804;12.190;2023-03-01T00:41:43;2.70;99.90
24522;DHT22;12680;57.804;12.190;2023-03-01T00:44:11;2.60;99.90
24522;DHT22;12680;57.804;12.190;2023-03-01T00:46:38;2.50;99.90
24522;DHT22;12680;57.804;12.190;2023-03-01T00:49:04;2.40;99.90
24522;DHT22;12680;57.804;12.190;2023-03-01T00:51:32;2.30;99.90
24522;DHT22;12680;57.804;12.190;2023-03-01T00:54:00;3.20;99.90
24522;DHT22;12680;57.804;12.190;2023-03-01T00:56:28;2.30;99.90
24522;DHT22;12680;57.804;12.190;2023-03-01T00:58:55;2.20;99.90
24522;DHT22;12680;57.804;12.190;2023-03-01T01:01:26;2.20;99.90
24522;DHT22;12680;57.804;12.190;2023-03-01T01:04:02;2.20;99.90
24522;DHT22;12680;57.804;12.190;2023-03-01T01:06:38;2.20;99.90
24522;DHT22;12680;57.804;12.190;2023-03-01T01:09:06;2.10;99.90
24522;DHT22;12680;57.804;12.190;2023-03-01T01:11:33;2.00;99.90
24522;DHT22;12680;57.804;12.190;2023-03-01T01:14:02;2.00;99.90
24522;DHT22;12680;57.804;12.190;2023-03-01T01:16:29;2.00;99.90
24522;DHT22;12680;57.804;12.190;2023-03-01T01:18:56;2.00;99.90
24522;DHT22;12680;57.804;12.190;2023-03-01T01:21:24;2.00;99.90
24522;DHT22;12680;57.804;12.190;2023-03-01T01:23:51;2.00;99.90
24522;DHT22;12680;57.804;12.190;2023-03-01T01:26:38;2.00;99.90
24522;DHT22;12680;57.804;12.190;2023-03-01T01:29:06;1.90;99.90
24522;DHT22;12680;57.804;12.190;2023-03-01T01:31:33;1.90;99.90
24522;DHT22;12680;57.804;12.190;2023-03-01T01:34:03;1.80;99.90
24522;DHT22;12680;57.804;12.190;2023-03-01T01:36:30;1.80;99.90
24522;DHT22;12680;57.804;12.190;2023-03-01T01:38:58;1.80;99.90
24522;DHT22;12680;57.804;12.190;2023-03-01T01:41:26;1.80;99.90
24522;DHT22;12680;57.804;12.190;2023-03-01T01:44:13;1.80;99.90
24522;DHT22;12680;57.804;12.190;2023-03-01T01:51:43;1.90;99.90
24522;DHT22;12680;57.804;12.190;2023-03-01T01:54:25;1.80;99.90
24522;DHT22;12680;57.804;12.190;2023-03-01T01:56:55;1.80;99.90
24522;DHT22;12680;57.804;12.190;2023-03-01T01:59:24;1.80;99.90
24522;DHT22;12680;57.804;12.190;2023-03-01T02:01:52;1.90;99.90
24522;DHT22;12680;57.804;12.190;2023-03-01T02:04:19;1.90;99.90
24522;DHT22;12680;57.804;12.190;2023-03-01T02:06:52;1.90;99.90
24522;DHT22;12680;57.804;12.190;2023-03-01T02:09:23;1.80;99.90
24522;DHT22;12680;57.804;12.190;2023-03-01T02:11:51;1.70;99.90
24522;DHT22;12680;57.804;12.190;2023-03-01T02:14:18;1.60;99.90
24522;DHT22;12680;57.804;12.190;2023-03-01T02:16:45;1.50;99.90
24522;DHT22;12680;57.804;12.190;2023-03-01T02:19:23;1.50;99.90
24522;DHT22;12680;57.804;12.190;2023-03-01T02:22:11;1.50;99.90
24522;DHT22;12680;57.804;12.190;2023-03-01T02:30:48;1.50;99.90
24522;DHT22;12680;57.804;12.190;2023-03-01T02:33:36;1.50;99.90
24522;DHT22;12680;57.804;12.190;2023-03-01T02:36:25;1.50;99.90
24522;DHT22;12680;57.804;12.190;2023-03-01T02:38:56;1.50;99.90
24522;DHT22;12680;57.804;12.190;2023-03-01T02:41:25;1.50;99.90
24522;DHT22;12680;57.804;12.190;2023-03-01T02:43:52;1.40;99.90
24522;DHT22;12680;57.804;12.190;2023-03-01T02:46:24;1.40;99.90
24522;DHT22;12680;57.804;12.190;2023-03-01T02:48:54;1.40;99.90
24522;DHT22;12680;57.804;12.190;2023-03-01T02:54:28;1.40;99.90
24522;DHT22;12680;57.804;12.190;2023-03-01T02:56:56;1.40;99.90
24522;DHT22;12680;57.804;12.190;2023-03-01T02:59:28;1.40;99.90
24522;DHT22;12680;57.804;12.190;2023-03-01T03:01:55;1.40;99.90
24522;DHT22;12680;57.804;12.190;2023-03-01T03:04:22;1.40;99.90
24522;DHT22;12680;57.804;12.190;2023-03-01T03:06:50;1.40;99.90
24522;DHT22;12680;57.804;12.190;2023-03-01T03:09:18;1.50;99.90
24522;DHT22;12680;57.804;12.190;2023-03-01T03:11:46;1.50;99.90
24522;DHT22;12680;57.804;12.190;2023-03-01T03:14:14;1.50;99.90
24522;DHT22;12680;57.804;12.190;2023-03-01T03:16:44;1.50;99.90
24522;DHT22;12680;57.804;12.190;2023-03-01T03:19:12;1.50;99.90
24522;DHT22;12680;57.804;12.190;2023-03-01T03:21:39;1.50;99.90
24522;DHT22;12680;57.804;12.190;2023-03-01T03:24:06;1.50;99.90
24522;DHT22;12680;57.804;12.190;2023-03-01T03:26:33;1.50;99.90
24522;DHT22;12680;57.804;12.190;2023-03-01T03:29:00;1.50;99.90
24522;DHT22;12680;57.804;12.190;2023-03-01T03:31:27;1.50;99.90
24522;DHT22;12680;57.804;12.190;2023-03-01T03:33:54;1.50;99.90
24522;DHT22;12680;57.804;12.190;2023-03-01T03:36:23;1.50;99.90
24522;DHT22;12680;57.804;12.190;2023-03-01T03:38:50;1.60;99.90
24522;DHT22;12680;57.804;12.190;2023-03-01T03:41:17;1.50;99.90
24522;DHT22;12680;57.804;12.190;2023-03-01T03:43:44;1.50;99.90
24522;DHT22;12680;57.804;12.190;2023-03-01T03:46:11;1.50;99.90
24522;DHT22;12680;57.804;12.190;2023-03-01T03:48:40;1.50;99.90
24522;DHT22;12680;57.804;12.190;2023-03-01T03:51:10;1.60;99.90
24522;DHT22;12680;57.804;12.190;2023-03-01T03:53:37;1.50;99.90
24522;DHT22;12680;57.804;12.190;2023-03-01T03:56:05;1.60;99.90
24522;DHT22;12680;57.804;12.190;2023-03-01T03:58:32;1.50;99.90
24522;DHT22;12680;57.804;12.190;2023-03-01T04:00:59;1.50;99.90
24522;DHT22;12680;57.804;12.190;2023-03-01T04:03:28;1.50;99.90
24522;DHT22;12680;57.804;12.190;2023-03-01T04:05:58;1.60;99.90
24522;DHT22;12680;57.804;12.190;2023-03-01T04:08:26;1.60;99.90
24522;DHT22;12680;57.804;12.190;2023-03-01T04:10:58;1.60;99.90
24522;DHT22;12680;57.804;12.190;2023-03-01T04:13:26;1.50;99.90
24522;DHT22;12680;57.804;12.190;2023-03-01T04:15:53;1.50;99.90
24522;DHT22;12680;57.804;12.190;2023-03-01T04:18:22;1.50;99.90
24522;DHT22;12680;57.804;12.190;2023-03-01T04:20:49;1.50;99.90
24522;DHT22;12680;57.804;12.190;2023-03-01T04:23:19;1.40;99.90
24522;DHT22;12680;57.804;12.190;2023-03-01T04:25:55;1.40;99.90
24522;DHT22;12680;57.804;12.190;2023-03-01T04:28:24;1.40;99.90
24522;DHT22;12680;57.804;12.190;2023-03-01T04:30:53;1.50;99.90
24522;DHT22;12680;57.804;12.190;2023-03-01T04:33:20;1.50;99.90
24522;DHT22;12680;57.804;12.190;2023-03-01T04:35:47;1.50;99.90
24522;DHT22;12680;57.804;12.190;2023-03-01T04:38:18;1.50;99.90
24522;DHT22;12680;57.804;12.190;2023-03-01T04:40:45;1.50;99.90
24522;DHT22;12680;57.804;12.190;2023-03-01T04:43:12;1.40;99.90
24522;DHT22;12680;57.804;12.190;2023-03-01T04:45:42;1.40;99.90
24522;DHT22;12680;57.804;12.190;2023-03-01T04:48:09;1.40;99.90
24522;DHT22;12680;57.804;12.190;2023-03-01T04:50:36;1.40;99.90
24522;DHT22;12680;57.804;12.190;2023-03-01T04:53:02;1.40;99.90
24522;DHT22;12680;57.804;12.190;2023-03-01T04:55:29;1.30;99.90
24522;DHT22;12680;57.804;12.190;2023-03-01T04:57:56;1.30;99.90
24522;DHT22;12680;57.804;12.190;2023-03-01T05:00:23;1.30;99.90
24522;DHT22;12680;57.804;12.190;2023-03-01T05:02:55;1.40;99.90
24522;DHT22;12680;57.804;12.190;2023-03-01T05:07:53;1.30;99.90
24522;DHT22;12680;57.804;12.190;2023-03-01T05:10:21;1.30;99.90
24522;DHT22;12680;57.804;12.190;2023-03-01T05:12:47;1.30;99.90
24522;DHT22;12680;57.804;12.190;2023-03-01T05:15:14;1.30;99.90
24522;DHT22;12680;57.804;12.190;2023-03-01T05:17:41;1.30;99.90
24522;DHT22;12680;57.804;12.190;2023-03-01T05:20:09;1.30;99.90
24522;DHT22;12680;57.804;12.190;2023-03-01T05:22:37;1.30;99.90
24522;DHT22;12680;57.804;12.190;2023-03-01T05:25:04;-0.40;99.90
24522;DHT22;12680;57.804;12.190;2023-03-01T05:27:31;1.40;99.90
24522;DHT22;12680;57.804;12.190;2023-03-01T05:29:58;1.40;99.90
24522;DHT22;12680;57.804;12.190;2023-03-01T05:32:24;1.40;99.90
24522;DHT22;12680;57.804;12.190;2023-03-01T05:34:51;1.40;99.90
24522;DHT22;12680;57.804;12.190;2023-03-01T05:37:18;1.50;99.90
24522;DHT22;12680;57.804;12.190;2023-03-01T05:39:46;1.50;99.90
24522;DHT22;12680;57.804;12.190;2023-03-01T05:42:16;3.00;99.90
24522;DHT22;12680;57.804;12.190;2023-03-01T05:44:43;1.60;99.90
24522;DHT22;12680;57.804;12.190;2023-03-01T05:47:11;1.50;99.90
24522;DHT22;12680;57.804;12.190;2023-03-01T05:49:37;1.60;99.90
24522;DHT22;12680;57.804;12.190;2023-03-01T05:52:05;1.60;99.90
24522;DHT22;12680;57.804;12.190;2023-03-01T05:54:32;1.60;99.90
24522;DHT22;12680;57.804;12.190;2023-03-01T05:56:59;1.60;99.90
24522;DHT22;12680;57.804;12.190;2023-03-01T05:59:26;1.70;99.90
24522;DHT22;12680;57.804;12.190;2023-03-01T06:01:53;1.70;99.90
24522;DHT22;12680;57.804;12.190;2023-03-01T06:04:20;1.70;99.90
24522;DHT22;12680;57.804;12.190;2023-03-01T06:06:47;1.60;99.90
24522;DHT22;12680;57.804;12.190;2023-03-01T06:09:14;1.60;99.90
24522;DHT22;12680;57.804;12.190;2023-03-01T06:11:41;1.50;99.90
24522;DHT22;12680;57.804;12.190;2023-03-01T06:14:08;1.50;99.90
24522;DHT22;12680;57.804;12.190;2023-03-01T06:16:34;1.50;99.90
24522;DHT22;12680;57.804;12.190;2023-03-01T06:19:01;1.40;99.90
24522;DHT22;12680;57.804;12.190;2023-03-01T06:21:28;1.40;99.90
24522;DHT22;12680;57.804;12.190;2023-03-01T06:23:55;1.40;99.90
24522;DHT22;12680;57.804;12.190;2023-03-01T06:26:21;1.40;99.90
24522;DHT22;12680;57.804;12.190;2023-03-01T06:28:48;1.30;99.90
24522;DHT22;12680;57.804;12.190;2023-03-01T06:31:15;1.30;99.90
24522;DHT22;12680;57.804;12.190;2023-03-01T06:33:42;1.30;99.90
24522;DHT22;12680;57.804;12.190;2023-03-01T06:36:11;1.40;99.90
24522;DHT22;12680;57.804;12.190;2023-03-01T06:38:37;1.40;99.90
24522;DHT22;12680;57.804;12.190;2023-03-01T06:41:04;1.40;99.90
24522;DHT22;12680;57.804;12.190;2023-03-01T06:43:31;1.40;99.90
24522;DHT22;12680;57.804;12.190;2023-03-01T06:45:58;1.30;99.90
24522;DHT22;12680;57.804;12.190;2023-03-01T06:48:25;1.40;99.90
24522;DHT22;12680;57.804;12.190;2023-03-01T06:50:52;1.40;99.90
24522;DHT22;12680;57.804;12.190;2023-03-01T06:53:18;1.40;99.90
24522;DHT22;12680;57.804;12.190;2023-03-01T06:55:45;1.50;99.90
24522;DHT22;12680;57.804;12.190;2023-03-01T06:58:12;1.50;99.90
24522;DHT22;12680;57.804;12.190;2023-03-01T07:00:39;1.60;99.90
24522;DHT22;12680;57.804;12.190;2023-03-01T07:03:08;1.50;99.90
24522;DHT22;12680;57.804;12.190;2023-03-01T07:05:35;1.50;99.90
24522;DHT22;12680;57.804;12.190;2023-03-01T07:08:02;1.50;99.90
24522;DHT22;12680;57.804;12.190;2023-03-01T07:10:28;1.50;99.90
24522;DHT22;12680;57.804;12.190;2023-03-01T07:12:59;1.50;99.90
24522;DHT22;12680;57.804;12.190;2023-03-01T07:15:26;1.50;99.90
24522;DHT22;12680;57.804;12.190;2023-03-01T07:17:53;1.50;99.90
24522;DHT22;12680;57.804;12.190;2023-03-01T07:20:20;1.60;99.90
24522;DHT22;12680;57.804;12.190;2023-03-01T07:22:52;1.70;99.90
24522;DHT22;12680;57.804;12.190;2023-03-01T07:25:19;1.70;99.90
24522;DHT22;12680;57.804;12.190;2023-03-01T07:27:52;1.80;99.90
24522;DHT22;12680;57.804;12.190;2023-03-01T07:30:20;1.80;99.90
24522;DHT22;12680;57.804;12.190;2023-03-01T07:32:47;1.80;99.90
24522;DHT22;12680;57.804;12.190;2023-03-01T07:35:14;3.40;99.90
24522;DHT22;12680;57.804;12.190;2023-03-01T07:37:41;1.90;99.90
24522;DHT22;12680;57.804;12.190;2023-03-01T07:40:09;2.00;99.90
24522;DHT22;12680;57.804;12.190;2023-03-01T07:42:36;2.00;99.90
24522;DHT22;12680;57.804;12.190;2023-03-01T07:45:04;1.90;99.90
24522;DHT22;12680;57.804;12.190;2023-03-01T07:47:32;2.00;99.90
24522;DHT22;12680;57.804;12.190;2023-03-01T07:49:59;2.00;99.90
24522;DHT22;12680;57.804;12.190;2023-03-01T07:52:25;2.00;99.90
24522;DHT22;12680;57.804;12.190;2023-03-01T07:54:52;2.10;99.90
24522;DHT22;12680;57.804;12.190;2023-03-01T07:57:19;2.20;99.90
24522;DHT22;12680;57.804;12.190;2023-03-01T07:59:46;2.20;99.90
24522;DHT22;12680;57.804;12.190;2023-03-01T08:02:13;2.30;99.90
24522;DHT22;12680;57.804;12.190;2023-03-01T08:04:42;2.40;99.90
24522;DHT22;12680;57.804;12.190;2023-03-01T08:07:09;2.40;99.90
24522;DHT22;12680;57.804;12.190;2023-03-01T08:09:35;2.50;99.90
24522;DHT22;12680;57.804;12.190;2023-03-01T08:12:05;2.50;99.90
24522;DHT22;12680;57.804;12.190;2023-03-01T08:14:32;2.50;99.90
24522;DHT22;12680;57.804;12.190;2023-03-01T08:16:59;2.60;99.90
24522;DHT22;12680;57.804;12.190;2023-03-01T08:19:26;2.70;99.90
24522;DHT22;12680;57.804;12.190;2023-03-01T08:21:54;2.80;99.90
24522;DHT22;12680;57.804;12.190;2023-03-01T08:24:24;2.90;99.90
24522;DHT22;12680;57.804;12.190;2023-03-01T08:26:51;3.00;99.90
24522;DHT22;12680;57.804;12.190;2023-03-01T08:29:18;3.10;99.90
24522;DHT22;12680;57.804;12.190;2023-03-01T08:31:45;3.10;99.90
24522;DHT22;12680;57.804;12.190;2023-03-01T08:34:13;3.10;99.90
24522;DHT22;12680;57.804;12.190;2023-03-01T08:36:42;3.20;99.90
24522;DHT22;12680;57.804;12.190;2023-03-01T08:39:15;3.20;99.90
24522;DHT22;12680;57.804;12.190;2023-03-01T08:41:43;3.30;99.90
24522;DHT22;12680;57.804;12.190;2023-03-01T08:44:13;3.40;99.90
24522;DHT22;12680;57.804;12.190;2023-03-01T08:46:41;3.50;99.90
24522;DHT22;12680;57.804;12.190;2023-03-01T08:49:13;3.50;99.90
24522;DHT22;12680;57.804;12.190;2023-03-01T08:51:41;3.60;99.90
24522;DHT22;12680;57.804;12.190;2023-03-01T08:54:29;3.70;99.90
24522;DHT22;12680;57.804;12.190;2023-03-01T08:56:55;3.80;99.90
24522;DHT22;12680;57.804;12.190;2023-03-01T08:59:25;3.90;99.90
24522;DHT22;12680;57.804;12.190;2023-03-01T09:01:52;4.00;99.90
24522;DHT22;12680;57.804;12.190;2023-03-01T09:04:19;4.10;99.90
24522;DHT22;12680;57.804;12.190;2023-03-01T09:06:46;4.10;99.90
24522;DHT22;12680;57.804;12.190;2023-03-01T09:09:15;4.20;99.90
24522;DHT22;12680;57.804;12.190;2023-03-01T09:11:46;4.30;99.90
24522;DHT22;12680;57.804;12.190;2023-03-01T09:14:14;4.30;99.90
24522;DHT22;12680;57.804;12.190;2023-03-01T09:16:40;4.40;99.90
24522;DHT22;12680;57.804;12.190;2023-03-01T09:19:07;4.50;99.90
24522;DHT22;12680;57.804;12.190;2023-03-01T09:21:34;4.60;99.90
24522;DHT22;12680;57.804;12.190;2023-03-01T09:24:08;4.60;99.90
24522;DHT22;12680;57.804;12.190;2023-03-01T09:26:38;4.70;99.90
24522;DHT22;12680;57.804;12.190;2023-03-01T09:29:05;5.90;99.90
24522;DHT22;12680;57.804;12.190;2023-03-01T09:31:31;4.90;99.90
24522;DHT22;12680;57.804;12.190;2023-03-01T09:33:58;4.90;99.90
24522;DHT22;12680;57.804;12.190;2023-03-01T09:36:25;5.10;99.90
24522;DHT22;12680;57.804;12.190;2023-03-01T09:38:52;5.10;99.90
24522;DHT22;12680;57.804;12.190;2023-03-01T09:44:20;5.20;99.90
24522;DHT22;12680;57.804;12.190;2023-03-01T09:46:48;5.30;99.90
24522;DHT22;12680;57.804;12.190;2023-03-01T09:49:19;5.30;99.90
24522;DHT22;12680;57.804;12.190;2023-03-01T09:52:21;5.40;99.90
24522;DHT22;12680;57.804;12.190;2023-03-01T09:54:54;5.40;99.90
24522;DHT22;12680;57.804;12.190;2023-03-01T10:02:51;5.60;99.90
24522;DHT22;12680;57.804;12.190;2023-03-01T10:05:27;5.70;99.90
24522;DHT22;12680;57.804;12.190;2023-03-01T10:10:38;5.90;99.90
24522;DHT22;12680;57.804;12.190;2023-03-01T10:15:52;6.00;99.90
24522;DHT22;12680;57.804;12.190;2023-03-01T10:18:25;6.10;99.90
24522;DHT22;12680;57.804;12.190;2023-03-01T10:21:01;6.10;99.90
24522;DHT22;12680;57.804;12.190;2023-03-01T10:23:31;6.20;99.90
24522;DHT22;12680;57.804;12.190;2023-03-01T10:26:07;6.20;99.90
24522;DHT22;12680;57.804;12.190;2023-03-01T10:28:54;6.30;99.90
24522;DHT22;12680;57.804;12.190;2023-03-01T10:31:25;6.50;99.90
24522;DHT22;12680;57.804;12.190;2023-03-01T10:33:56;6.60;99.90
24522;DHT22;12680;57.804;12.190;2023-03-01T10:36:24;6.70;99.90
24522;DHT22;12680;57.804;12.190;2023-03-01T10:38:53;6.70;99.90
24522;DHT22;12680;57.804;12.190;2023-03-01T10:41:21;6.70;99.90
24522;DHT22;12680;57.804;12.190;2023-03-01T10:43:55;6.80;99.90
24522;DHT22;12680;57.804;12.190;2023-03-01T10:46:27;6.90;99.90
24522;DHT22;12680;57.804;12.190;2023-03-01T10:49:14;7.00;99.90
24522;DHT22;12680;57.804;12.190;2023-03-01T10:51:43;7.00;99.90
24522;DHT22;12680;57.804;12.190;2023-03-01T10:54:29;7.10;99.90
24522;DHT22;12680;57.804;12.190;2023-03-01T10:57:01;7.10;99.90
24522;DHT22;12680;57.804;12.190;2023-03-01T10:59:37;7.20;99.90
24522;DHT22;12680;57.804;12.190;2023-03-01T11:07:23;7.50;99.90
24522;DHT22;12680;57.804;12.190;2023-03-01T11:09:50;7.60;99.90
24522;DHT22;12680;57.804;12.190;2023-03-01T11:12:17;9.10;99.90
24522;DHT22;12680;57.804;12.190;2023-03-01T11:14:49;7.80;99.90
24522;DHT22;12680;57.804;12.190;2023-03-01T11:17:31;8.00;99.90
24522;DHT22;12680;57.804;12.190;2023-03-01T11:22:55;8.10;99.50
24522;DHT22;12680;57.804;12.190;2023-03-01T11:25:31;8.10;99.50
24522;DHT22;12680;57.804;12.190;2023-03-01T11:28:01;8.20;99.30
24522;DHT22;12680;57.804;12.190;2023-03-01T11:33:13;8.40;99.10
24522;DHT22;12680;57.804;12.190;2023-03-01T11:36:13;8.50;98.80
24522;DHT22;12680;57.804;12.190;2023-03-01T11:38:36;8.50;98.60
24522;DHT22;12680;57.804;12.190;2023-03-01T11:41:20;9.40;98.80
24522;DHT22;12680;57.804;12.190;2023-03-01T11:44:02;8.60;98.00
24522;DHT22;12680;57.804;12.190;2023-03-01T11:46:57;8.70;98.10
24522;DHT22;12680;57.804;12.190;2023-03-01T11:49:55;8.70;97.80
24522;DHT22;12680;57.804;12.190;2023-03-01T12:14:52;9.20;96.70
24522;DHT22;12680;57.804;12.190;2023-03-01T12:17:43;9.30;96.50
24522;DHT22;12680;57.804;12.190;2023-03-01T12:40:03;9.50;95.70
24522;DHT22;12680;57.804;12.190;2023-03-01T12:42:42;9.60;95.50
24522;DHT22;12680;57.804;12.190;2023-03-01T12:51:31;9.60;95.20
24522;DHT22;12680;57.804;12.190;2023-03-01T12:54:02;9.70;95.20
24522;DHT22;12680;57.804;12.190;2023-03-01T12:56:34;9.70;95.20
24522;DHT22;12680;57.804;12.190;2023-03-01T13:01:51;9.80;94.90
24522;DHT22;12680;57.804;12.190;2023-03-01T13:04:39;9.80;94.90
24522;DHT22;12680;57.804;12.190;2023-03-01T13:07:29;9.90;94.90
24522;DHT22;12680;57.804;12.190;2023-03-01T13:20:21;9.90;94.00
24522;DHT22;12680;57.804;12.190;2023-03-01T13:23:07;9.90;94.30
24522;DHT22;12680;57.804;12.190;2023-03-01T13:31:03;10.00;94.10
24522;DHT22;12680;57.804;12.190;2023-03-01T13:36:00;10.10;94.00
24522;DHT22;12680;57.804;12.190;2023-03-01T13:38:47;10.00;93.70
24522;DHT22;12680;57.804;12.190;2023-03-01T13:41:17;10.70;93.80
24522;DHT22;12680;57.804;12.190;2023-03-01T13:46:45;10.00;93.80
24522;DHT22;12680;57.804;12.190;2023-03-01T13:49:16;11.60;93.70
24522;DHT22;12680;57.804;12.190;2023-03-01T13:51:49;9.90;93.20
24522;DHT22;12680;57.804;12.190;2023-03-01T13:54:30;9.90;93.10
24522;DHT22;12680;57.804;12.190;2023-03-01T13:57:00;9.80;93.00
24522;DHT22;12680;57.804;12.190;2023-03-01T13:59:27;9.80;93.20
24522;DHT22;12680;57.804;12.190;2023-03-01T14:01:58;9.80;93.10
24522;DHT22;12680;57.804;12.190;2023-03-01T14:04:31;9.90;93.10
24522;DHT22;12680;57.804;12.190;2023-03-01T14:07:21;9.90;92.90
24522;DHT22;12680;57.804;12.190;2023-03-01T14:09:56;9.80;92.80
24522;DHT22;12680;57.804;12.190;2023-03-01T14:12:44;10.50;93.00
24522;DHT22;12680;57.804;12.190;2023-03-01T14:15:42;9.70;92.50
24522;DHT22;12680;57.804;12.190;2023-03-01T14:18:33;9.70;92.60
24522;DHT22;12680;57.804;12.190;2023-03-01T14:21:07;9.60;92.30
24522;DHT22;12680;57.804;12.190;2023-03-01T14:23:34;9.60;92.30
24522;DHT22;12680;57.804;12.190;2023-03-01T14:26:04;9.50;92.20
24522;DHT22;12680;57.804;12.190;2023-03-01T14:28:33;9.50;92.00
24522;DHT22;12680;57.804;12.190;2023-03-01T14:31:21;9.40;91.90
24522;DHT22;12680;57.804;12.190;2023-03-01T14:33:55;9.40;91.90
24522;DHT22;12680;57.804;12.190;2023-03-01T14:36:33;9.40;91.20
24522;DHT22;12680;57.804;12.190;2023-03-01T14:39:00;9.30;91.30
24522;DHT22;12680;57.804;12.190;2023-03-01T14:41:35;9.30;91.60
24522;DHT22;12680;57.804;12.190;2023-03-01T14:44:12;9.30;91.70
24522;DHT22;12680;57.804;12.190;2023-03-01T14:46:43;9.30;91.70
24522;DHT22;12680;57.804;12.190;2023-03-01T14:49:20;9.30;91.80
24522;DHT22;12680;57.804;12.190;2023-03-01T14:51:58;9.20;91.70
24522;DHT22;12680;57.804;12.190;2023-03-01T14:54:40;9.20;91.90
24522;DHT22;12680;57.804;12.190;2023-03-01T14:57:16;9.20;91.90
24522;DHT22;12680;57.804;12.190;2023-03-01T14:59:43;9.10;91.90
24522;DHT22;12680;57.804;12.190;2023-03-01T15:02:19;9.10;91.90
24522;DHT22;12680;57.804;12.190;2023-03-01T15:04:49;9.90;92.20
24522;DHT22;12680;57.804;12.190;2023-03-01T15:07:17;9.00;91.90
24522;DHT22;12680;57.804;12.190;2023-03-01T15:09:44;8.90;92.00
24522;DHT22;12680;57.804;12.190;2023-03-01T15:14:55;8.90;92.10
24522;DHT22;12680;57.804;12.190;2023-03-01T15:17:35;8.90;92.20
24522;DHT22;12680;57.804;12.190;2023-03-01T15:20:05;8.80;92.20
24522;DHT22;12680;57.804;12.190;2023-03-01T15:22:33;8.80;92.20
24522;DHT22;12680;57.804;12.190;2023-03-01T15:25:01;10.70;92.90
24522;DHT22;12680;57.804;12.190;2023-03-01T15:27:28;8.70;92.20
24522;DHT22;12680;57.804;12.190;2023-03-01T15:29:59;8.70;92.20
24522;DHT22;12680;57.804;12.190;2023-03-01T15:32:32;8.70;92.20
24522;DHT22;12680;57.804;12.190;2023-03-01T15:35:31;8.70;92.20
24522;DHT22;12680;57.804;12.190;2023-03-01T15:37:49;9.80;92.60
24522;DHT22;12680;57.804;12.190;2023-03-01T15:40:30;8.60;92.20
24522;DHT22;12680;57.804;12.190;2023-03-01T15:43:02;8.50;92.20
24522;DHT22;12680;57.804;12.190;2023-03-01T15:45:31;8.50;92.30
24522;DHT22;12680;57.804;12.190;2023-03-01T15:48:05;8.40;92.30
24522;DHT22;12680;57.804;12.190;2023-03-01T15:50:40;8.40;92.50
24522;DHT22;12680;57.804;12.190;2023-03-01T15:53:13;8.30;92.60
24522;DHT22;12680;57.804;12.190;2023-03-01T15:55:41;8.20;92.60
24522;DHT22;12680;57.804;12.190;2023-03-01T15:58:18;8.20;92.80
24522;DHT22;12680;57.804;12.190;2023-03-01T16:00:46;8.10;92.90
24522;DHT22;12680;57.804;12.190;2023-03-01T16:03:26;8.00;92.90
24522;DHT22;12680;57.804;12.190;2023-03-01T16:05:53;7.90;93.10
24522;DHT22;12680;57.804;12.190;2023-03-01T16:08:20;9.10;93.50
24522;DHT22;12680;57.804;12.190;2023-03-01T16:10:47;7.70;93.20
24522;DHT22;12680;57.804;12.190;2023-03-01T16:13:16;7.60;93.30
24522;DHT22;12680;57.804;12.190;2023-03-01T16:15:44;7.50;93.40
24522;DHT22;12680;57.804;12.190;2023-03-01T16:18:11;9.20;94.10
24522;DHT22;12680;57.804;12.190;2023-03-01T16:20:39;7.30;93.70
24522;DHT22;12680;57.804;12.190;2023-03-01T16:23:08;7.20;93.80
24522;DHT22;12680;57.804;12.190;2023-03-01T16:25:35;7.10;93.80
24522;DHT22;12680;57.804;12.190;2023-03-01T16:28:03;7.00;94.00
24522;DHT22;12680;57.804;12.190;2023-03-01T16:30:37;6.90;94.20
24522;DHT22;12680;57.804;12.190;2023-03-01T16:33:05;6.90;94.30
24522;DHT22;12680;57.804;12.190;2023-03-01T16:35:54;6.80;94.40
24522;DHT22;12680;57.804;12.190;2023-03-01T16:38:21;6.80;94.60
24522;DHT22;12680;57.804;12.190;2023-03-01T16:40:49;6.70;94.60
24522;DHT22;12680;57.804;12.190;2023-03-01T16:43:17;6.60;94.70
24522;DHT22;12680;57.804;12.190;2023-03-01T16:45:44;6.50;94.70
24522;DHT22;12680;57.804;12.190;2023-03-01T16:48:12;6.40;94.80
24522;DHT22;12680;57.804;12.190;2023-03-01T16:50:40;6.30;94.60
24522;DHT22;12680;57.804;12.190;2023-03-01T16:53:06;6.10;94.70
24522;DHT22;12680;57.804;12.190;2023-03-01T16:55:34;6.00;94.80
24522;DHT22;12680;57.804;12.190;2023-03-01T16:58:02;6.00;95.00
24522;DHT22;12680;57.804;12.190;2023-03-01T17:00:29;5.90;95.00
24522;DHT22;12680;57.804;12.190;2023-03-01T17:02:56;5.80;95.10
24522;DHT22;12680;57.804;12.190;2023-03-01T17:05:23;5.70;95.10
24522;DHT22;12680;57.804;12.190;2023-03-01T17:07:51;7.10;95.60
24522;DHT22;12680;57.804;12.190;2023-03-01T17:10:21;5.50;95.30
24522;DHT22;12680;57.804;12.190;2023-03-01T17:12:49;5.40;95.30
24522;DHT22;12680;57.804;12.190;2023-03-01T17:15:17;5.30;95.30
24522;DHT22;12680;57.804;12.190;2023-03-01T17:17:43;5.20;95.40
24522;DHT22;12680;57.804;12.190;2023-03-01T17:20:11;5.20;95.60
24522;DHT22;12680;57.804;12.190;2023-03-01T17:22:39;5.10;95.70
24522;DHT22;12680;57.804;12.190;2023-03-01T17:25:08;5.00;95.70
24522;DHT22;12680;57.804;12.190;2023-03-01T17:27:37;4.90;95.70
24522;DHT22;12680;57.804;12.190;2023-03-01T17:30:06;5.00;95.90
24522;DHT22;12680;57.804;12.190;2023-03-01T17:32:35;4.80;96.00
24522;DHT22;12680;57.804;12.190;2023-03-01T17:35:04;4.80;96.10
24522;DHT22;12680;57.804;12.190;2023-03-01T17:37:31;4.70;96.10
24522;DHT22;12680;57.804;12.190;2023-03-01T17:39:58;4.60;96.10
24522;DHT22;12680;57.804;12.190;2023-03-01T17:42:25;4.50;96.10
24522;DHT22;12680;57.804;12.190;2023-03-01T17:44:52;4.50;96.20